CAO1047 ZSPD-EDDF
Flight info
| Callsign | CAO1047 |
|---|---|
| Flight time | N/A |
| Altitude | 36000 |
| Route | PIK95D PIKAS G330 PIMOL A593 DALIM W157 VYK G212 SOTMU B339 ASILA A575 UPREK W28 LAGEB W66 NUKTI B215 KABDO W119 GOBOK A343 RULAD/K0880F380 M610 ARBOL Z621 GENDI N147 OTBOR/N0481F380 A480 TIMGA B476 METKA L88 RASAM N199 EDATA M11 MATAL DCT REBLO UM11 CRM UL746 ODERO DCT OPT DCT SOKRU DCT ARSIN DCT SUBEN DCT AKINI T161 DEBHI SPESA5C |
| Aircraft | B77L/H-SDE1E2E3FGHIJ2J3J4J5M1RWXY/LB1D1 |
Departure
| Time | N/A |
|---|---|
| Airport | Shanghai Pudong International Airport (ZSPD) |
Arrival
| Time | 2026-04-14 16:23 |
|---|---|
| Airport | Frankfurt Main Airport (EDDF) |
| Time | Latitude | Longitude | Altitude | Speed | Heading |
|---|---|---|---|---|---|
| 2026-04-14 14:52 | 46.18470 | 21.72001 | 36100 ft | 474 kts | 292° |
| 2026-04-14 14:53 | 46.19801 | 21.67659 | 36093 ft | 473 kts | 292° |
| 2026-04-14 14:53 | 46.22382 | 21.59242 | 36102 ft | 472 kts | 292° |
| 2026-04-14 14:54 | 46.25033 | 21.50573 | 36104 ft | 472 kts | 292° |
| 2026-04-14 14:54 | 46.27678 | 21.41888 | 36102 ft | 472 kts | 292° |
| 2026-04-14 14:55 | 46.30317 | 21.33189 | 36098 ft | 472 kts | 292° |
| 2026-04-14 14:55 | 46.32932 | 21.24544 | 36103 ft | 473 kts | 292° |
| 2026-04-14 14:56 | 46.36879 | 21.11434 | 36101 ft | 474 kts | 292° |
| 2026-04-14 14:56 | 46.39502 | 21.02685 | 36099 ft | 473 kts | 292° |
| 2026-04-14 14:57 | 46.42121 | 20.93928 | 36105 ft | 474 kts | 292° |
| 2026-04-14 14:57 | 46.44730 | 20.85159 | 36105 ft | 474 kts | 292° |
| 2026-04-14 14:58 | 46.47331 | 20.76383 | 36111 ft | 473 kts | 292° |
| 2026-04-14 14:58 | 46.49927 | 20.67596 | 36114 ft | 474 kts | 292° |
| 2026-04-14 14:59 | 46.52521 | 20.58794 | 36115 ft | 474 kts | 291° |
| 2026-04-14 14:59 | 46.55106 | 20.49985 | 36111 ft | 474 kts | 291° |
| 2026-04-14 15:00 | 46.57683 | 20.41164 | 36110 ft | 474 kts | 291° |
| 2026-04-14 15:00 | 46.60258 | 20.32328 | 36114 ft | 474 kts | 291° |
| 2026-04-14 15:01 | 46.62810 | 20.23545 | 36119 ft | 474 kts | 291° |
| 2026-04-14 15:01 | 46.65370 | 20.14697 | 36124 ft | 474 kts | 291° |
| 2026-04-14 15:02 | 46.67921 | 20.05849 | 36124 ft | 474 kts | 291° |
| 2026-04-14 15:02 | 46.70468 | 19.96978 | 36132 ft | 474 kts | 291° |
| 2026-04-14 15:03 | 46.73007 | 19.88102 | 36147 ft | 474 kts | 291° |
| 2026-04-14 15:03 | 46.75532 | 19.79245 | 36119 ft | 472 kts | 291° |
| 2026-04-14 15:04 | 46.78037 | 19.70433 | 36130 ft | 469 kts | 291° |
| 2026-04-14 15:04 | 46.80522 | 19.61655 | 36122 ft | 467 kts | 291° |
| 2026-04-14 15:05 | 46.82990 | 19.52903 | 36134 ft | 466 kts | 291° |
| 2026-04-14 15:05 | 46.85448 | 19.44159 | 36134 ft | 465 kts | 291° |
| 2026-04-14 15:06 | 46.87901 | 19.35400 | 36127 ft | 466 kts | 291° |
| 2026-04-14 15:06 | 46.90350 | 19.26618 | 36137 ft | 467 kts | 291° |
| 2026-04-14 15:07 | 46.92800 | 19.17805 | 36121 ft | 468 kts | 291° |
| 2026-04-14 15:07 | 46.95229 | 19.09032 | 36134 ft | 468 kts | 291° |
| 2026-04-14 15:08 | 46.97685 | 19.00131 | 36130 ft | 469 kts | 291° |
| 2026-04-14 15:08 | 47.00108 | 18.91316 | 36127 ft | 470 kts | 290° |
| 2026-04-14 15:09 | 47.02539 | 18.82436 | 36123 ft | 470 kts | 290° |
| 2026-04-14 15:09 | 47.04967 | 18.73541 | 36130 ft | 470 kts | 290° |
| 2026-04-14 15:10 | 47.07389 | 18.64630 | 36130 ft | 470 kts | 290° |
| 2026-04-14 15:10 | 47.09802 | 18.55722 | 36123 ft | 470 kts | 290° |
| 2026-04-14 15:11 | 47.12205 | 18.46817 | 36128 ft | 469 kts | 290° |
| 2026-04-14 15:11 | 47.14599 | 18.37911 | 36123 ft | 469 kts | 290° |
| 2026-04-14 15:12 | 47.16982 | 18.29001 | 36132 ft | 468 kts | 290° |
| 2026-04-14 15:12 | 47.19360 | 18.20091 | 36124 ft | 468 kts | 290° |
| 2026-04-14 15:13 | 47.21731 | 18.11169 | 36124 ft | 468 kts | 290° |
| 2026-04-14 15:13 | 47.24092 | 18.02251 | 36121 ft | 468 kts | 290° |
| 2026-04-14 15:14 | 47.26445 | 17.93326 | 36116 ft | 468 kts | 290° |
| 2026-04-14 15:14 | 47.28791 | 17.84394 | 36124 ft | 468 kts | 289° |
| 2026-04-14 15:15 | 47.31131 | 17.75453 | 36113 ft | 468 kts | 289° |
| 2026-04-14 15:15 | 47.33465 | 17.66510 | 36110 ft | 468 kts | 289° |
| 2026-04-14 15:16 | 47.35788 | 17.57553 | 36106 ft | 468 kts | 289° |
| 2026-04-14 15:16 | 47.38107 | 17.48584 | 36099 ft | 468 kts | 289° |
| 2026-04-14 15:17 | 47.40420 | 17.39611 | 36104 ft | 468 kts | 289° |
| 2026-04-14 15:17 | 47.42725 | 17.30630 | 36101 ft | 468 kts | 289° |
| 2026-04-14 15:18 | 47.45026 | 17.21634 | 36109 ft | 468 kts | 289° |
| 2026-04-14 15:18 | 47.47315 | 17.12638 | 36110 ft | 468 kts | 289° |
| 2026-04-14 15:19 | 47.49583 | 17.03696 | 36111 ft | 468 kts | 289° |
| 2026-04-14 15:19 | 47.51864 | 16.94671 | 36112 ft | 468 kts | 289° |
| 2026-04-14 15:20 | 47.54134 | 16.85644 | 36124 ft | 468 kts | 289° |
| 2026-04-14 15:20 | 47.56399 | 16.76610 | 36116 ft | 468 kts | 289° |
| 2026-04-14 15:21 | 47.58756 | 16.67617 | 36120 ft | 469 kts | 290° |
| 2026-04-14 15:21 | 47.61221 | 16.58680 | 36117 ft | 469 kts | 290° |
| 2026-04-14 15:22 | 47.63682 | 16.49717 | 36124 ft | 469 kts | 290° |
| 2026-04-14 15:22 | 47.66116 | 16.40749 | 36118 ft | 469 kts | 290° |
| 2026-04-14 15:23 | 47.68537 | 16.31759 | 36135 ft | 469 kts | 290° |
| 2026-04-14 15:23 | 47.70944 | 16.22776 | 36125 ft | 469 kts | 290° |
| 2026-04-14 15:24 | 47.73345 | 16.13781 | 36129 ft | 468 kts | 290° |
| 2026-04-14 15:24 | 47.75739 | 16.04785 | 36129 ft | 468 kts | 290° |
| 2026-04-14 15:25 | 47.77720 | 15.97306 | 36134 ft | 468 kts | 290° |
| 2026-04-14 15:25 | 47.80100 | 15.88300 | 36143 ft | 468 kts | 289° |
| 2026-04-14 15:26 | 47.82471 | 15.79288 | 36122 ft | 468 kts | 289° |
| 2026-04-14 15:26 | 47.84842 | 15.70248 | 36138 ft | 469 kts | 289° |
| 2026-04-14 15:27 | 47.87204 | 15.61202 | 36127 ft | 469 kts | 289° |
| 2026-04-14 15:27 | 47.89560 | 15.52138 | 36126 ft | 469 kts | 289° |
| 2026-04-14 15:28 | 47.91908 | 15.43074 | 36126 ft | 469 kts | 289° |
| 2026-04-14 15:28 | 47.94252 | 15.33990 | 36126 ft | 469 kts | 289° |
| 2026-04-14 15:29 | 47.96588 | 15.24899 | 36119 ft | 469 kts | 289° |
| 2026-04-14 15:29 | 47.98900 | 15.15865 | 36122 ft | 469 kts | 289° |
| 2026-04-14 15:30 | 48.01223 | 15.06761 | 36118 ft | 469 kts | 289° |
| 2026-04-14 15:30 | 48.03538 | 14.97645 | 36119 ft | 469 kts | 289° |
| 2026-04-14 15:31 | 48.05845 | 14.88521 | 36127 ft | 470 kts | 289° |
| 2026-04-14 15:31 | 48.08148 | 14.79381 | 36124 ft | 470 kts | 289° |
| 2026-04-14 15:32 | 48.10444 | 14.70229 | 36135 ft | 470 kts | 288° |
| 2026-04-14 15:32 | 48.12736 | 14.61058 | 36128 ft | 471 kts | 288° |
| 2026-04-14 15:33 | 48.15023 | 14.51866 | 36149 ft | 471 kts | 288° |
| 2026-04-14 15:33 | 48.17302 | 14.42672 | 36156 ft | 471 kts | 288° |
| 2026-04-14 15:34 | 48.19577 | 14.33451 | 36158 ft | 472 kts | 288° |
| 2026-04-14 15:34 | 48.21844 | 14.24225 | 36156 ft | 472 kts | 288° |
| 2026-04-14 15:35 | 48.24105 | 14.14991 | 36157 ft | 472 kts | 288° |
| 2026-04-14 15:35 | 48.26358 | 14.05751 | 36158 ft | 472 kts | 288° |
| 2026-04-14 15:36 | 48.28604 | 13.96501 | 36160 ft | 472 kts | 288° |
| 2026-04-14 15:36 | 48.30759 | 13.87586 | 36155 ft | 471 kts | 288° |
| 2026-04-14 15:37 | 48.32986 | 13.78334 | 36159 ft | 471 kts | 288° |
| 2026-04-14 15:37 | 48.35204 | 13.69080 | 36156 ft | 471 kts | 288° |
| 2026-04-14 15:38 | 48.37416 | 13.59814 | 36158 ft | 471 kts | 288° |
| 2026-04-14 15:38 | 48.39624 | 13.50528 | 36162 ft | 471 kts | 288° |
| 2026-04-14 15:39 | 48.41809 | 13.41298 | 36166 ft | 471 kts | 288° |
| 2026-04-14 15:39 | 48.44008 | 13.31997 | 36166 ft | 472 kts | 288° |
| 2026-04-14 15:40 | 48.46399 | 13.22791 | 36168 ft | 472 kts | 290° |
| 2026-04-14 15:40 | 48.48880 | 13.13627 | 36168 ft | 472 kts | 290° |
| 2026-04-14 15:41 | 48.51333 | 13.04426 | 36167 ft | 473 kts | 290° |
| 2026-04-14 15:41 | 48.53752 | 12.95203 | 36165 ft | 473 kts | 290° |
| 2026-04-14 15:42 | 48.56158 | 12.85969 | 36176 ft | 472 kts | 289° |
| 2026-04-14 15:42 | 48.58557 | 12.76731 | 36175 ft | 472 kts | 289° |
| 2026-04-14 15:43 | 48.60946 | 12.67493 | 36173 ft | 472 kts | 289° |
| 2026-04-14 15:43 | 48.63327 | 12.58254 | 36180 ft | 472 kts | 289° |
| 2026-04-14 15:44 | 48.65703 | 12.48997 | 36176 ft | 472 kts | 289° |
| 2026-04-14 15:44 | 48.68073 | 12.39725 | 36178 ft | 472 kts | 289° |
| 2026-04-14 15:45 | 48.70434 | 12.30445 | 36174 ft | 472 kts | 289° |
| 2026-04-14 15:45 | 48.72791 | 12.21157 | 36174 ft | 472 kts | 289° |
| 2026-04-14 15:46 | 48.74984 | 12.11795 | 36175 ft | 471 kts | 284° |
| 2026-04-14 15:46 | 48.76185 | 12.02069 | 36183 ft | 469 kts | 277° |
| 2026-04-14 15:47 | 48.77170 | 11.92284 | 36172 ft | 470 kts | 278° |
| 2026-04-14 15:47 | 48.78193 | 11.82501 | 36172 ft | 470 kts | 278° |
| 2026-04-14 15:48 | 48.79222 | 11.72766 | 36182 ft | 471 kts | 278° |
| 2026-04-14 15:48 | 48.80247 | 11.62965 | 36185 ft | 471 kts | 278° |
| 2026-04-14 15:49 | 48.81272 | 11.53158 | 36183 ft | 471 kts | 278° |
| 2026-04-14 15:49 | 48.82298 | 11.43335 | 36186 ft | 472 kts | 278° |
| 2026-04-14 15:50 | 48.83317 | 11.33493 | 36181 ft | 472 kts | 278° |
| 2026-04-14 15:50 | 48.84886 | 11.23884 | 36176 ft | 472 kts | 294° |
| 2026-04-14 15:51 | 48.88668 | 11.15753 | 36180 ft | 476 kts | 316° |
| 2026-04-14 15:51 | 48.93670 | 11.09143 | 36176 ft | 478 kts | 317° |
| 2026-04-14 15:52 | 48.98589 | 11.02327 | 36195 ft | 479 kts | 316° |
| 2026-04-14 15:52 | 49.01040 | 10.98856 | 35671 ft | 488 kts | 316° |
| 2026-04-14 15:52 | 49.03543 | 10.95305 | 34915 ft | 490 kts | 315° |
| 2026-04-14 15:53 | 49.06045 | 10.91764 | 33901 ft | 492 kts | 316° |
| 2026-04-14 15:53 | 49.08557 | 10.88214 | 32947 ft | 492 kts | 316° |
| 2026-04-14 15:53 | 49.11065 | 10.84674 | 31946 ft | 492 kts | 315° |
| 2026-04-14 15:53 | 49.13577 | 10.81129 | 30904 ft | 488 kts | 315° |
| 2026-04-14 15:54 | 49.18382 | 10.74339 | 29466 ft | 455 kts | 315° |
| 2026-04-14 15:54 | 49.20632 | 10.71120 | 28803 ft | 441 kts | 314° |
| 2026-04-14 15:54 | 49.22757 | 10.67848 | 28169 ft | 429 kts | 312° |
| 2026-04-14 15:55 | 49.24812 | 10.64552 | 27564 ft | 430 kts | 311° |
| 2026-04-14 15:55 | 49.26887 | 10.61209 | 26938 ft | 435 kts | 311° |
| 2026-04-14 15:55 | 49.29000 | 10.57828 | 26308 ft | 445 kts | 312° |
| 2026-04-14 15:55 | 49.31161 | 10.54404 | 25659 ft | 446 kts | 312° |
| 2026-04-14 15:56 | 49.33294 | 10.51037 | 24992 ft | 434 kts | 312° |
| 2026-04-14 15:56 | 49.35359 | 10.47759 | 24370 ft | 419 kts | 311° |
| 2026-04-14 15:56 | 49.37195 | 10.44364 | 23952 ft | 411 kts | 304° |
| 2026-04-14 15:56 | 49.38846 | 10.40723 | 23629 ft | 422 kts | 303° |
| 2026-04-14 15:57 | 49.40529 | 10.36974 | 23260 ft | 430 kts | 303° |
| 2026-04-14 15:57 | 49.42233 | 10.33194 | 22888 ft | 427 kts | 303° |
| 2026-04-14 15:57 | 49.43922 | 10.29466 | 22533 ft | 424 kts | 303° |
| 2026-04-14 15:57 | 49.45606 | 10.25755 | 22190 ft | 423 kts | 303° |
| 2026-04-14 15:58 | 49.47283 | 10.22059 | 21833 ft | 421 kts | 303° |
| 2026-04-14 15:58 | 49.48954 | 10.18376 | 21490 ft | 419 kts | 303° |
| 2026-04-14 15:58 | 49.50618 | 10.14703 | 21139 ft | 417 kts | 303° |
| 2026-04-14 15:58 | 49.52270 | 10.11048 | 20797 ft | 415 kts | 303° |
| 2026-04-14 15:59 | 49.53914 | 10.07405 | 20455 ft | 414 kts | 303° |
| 2026-04-14 15:59 | 49.55555 | 10.03768 | 20101 ft | 412 kts | 303° |
| 2026-04-14 15:59 | 49.57188 | 10.00144 | 19764 ft | 411 kts | 303° |
| 2026-04-14 15:59 | 49.58810 | 9.96543 | 19423 ft | 408 kts | 303° |
| 2026-04-14 16:00 | 49.60422 | 9.92950 | 19081 ft | 406 kts | 303° |
| 2026-04-14 16:00 | 49.62026 | 9.89376 | 18748 ft | 404 kts | 303° |
| 2026-04-14 16:00 | 49.63621 | 9.85817 | 18413 ft | 402 kts | 303° |
| 2026-04-14 16:00 | 49.65207 | 9.82272 | 18075 ft | 400 kts | 303° |
| 2026-04-14 16:01 | 49.66783 | 9.78744 | 17748 ft | 398 kts | 303° |
| 2026-04-14 16:01 | 49.68352 | 9.75228 | 17428 ft | 397 kts | 303° |
| 2026-04-14 16:01 | 49.69911 | 9.71731 | 17091 ft | 395 kts | 303° |
| 2026-04-14 16:01 | 49.71464 | 9.68244 | 16763 ft | 393 kts | 303° |
| 2026-04-14 16:02 | 49.73007 | 9.64773 | 16429 ft | 391 kts | 303° |
| 2026-04-14 16:02 | 49.74541 | 9.61314 | 16111 ft | 390 kts | 303° |
| 2026-04-14 16:02 | 49.76070 | 9.57863 | 15790 ft | 388 kts | 303° |
| 2026-04-14 16:02 | 49.77593 | 9.54423 | 15473 ft | 385 kts | 303° |
| 2026-04-14 16:03 | 49.79075 | 9.51072 | 15204 ft | 369 kts | 303° |
| 2026-04-14 16:03 | 49.80495 | 9.47858 | 14802 ft | 354 kts | 303° |
| 2026-04-14 16:03 | 49.81839 | 9.44812 | 14611 ft | 331 kts | 303° |
| 2026-04-14 16:03 | 49.83102 | 9.41949 | 14369 ft | 313 kts | 303° |
| 2026-04-14 16:04 | 49.84307 | 9.39209 | 13946 ft | 303 kts | 303° |
| 2026-04-14 16:04 | 49.85464 | 9.36527 | 13376 ft | 297 kts | 300° |
| 2026-04-14 16:04 | 49.86403 | 9.33687 | 12730 ft | 295 kts | 293° |
| 2026-04-14 16:04 | 49.87119 | 9.30729 | 12093 ft | 292 kts | 286° |
| 2026-04-14 16:05 | 49.87680 | 9.27750 | 11446 ft | 292 kts | 284° |
| 2026-04-14 16:05 | 49.88227 | 9.24704 | 10993 ft | 293 kts | 285° |
| 2026-04-14 16:05 | 49.88773 | 9.21698 | 10704 ft | 287 kts | 285° |
| 2026-04-14 16:05 | 49.89324 | 9.18728 | 10318 ft | 286 kts | 286° |
| 2026-04-14 16:06 | 49.89878 | 9.15771 | 9899 ft | 286 kts | 286° |
| 2026-04-14 16:06 | 49.90437 | 9.12820 | 9511 ft | 284 kts | 287° |
| 2026-04-14 16:06 | 49.90992 | 9.09890 | 9149 ft | 282 kts | 287° |
| 2026-04-14 16:06 | 49.91544 | 9.06982 | 8765 ft | 281 kts | 287° |
| 2026-04-14 16:07 | 49.92095 | 9.04075 | 8355 ft | 281 kts | 287° |
| 2026-04-14 16:07 | 49.92645 | 9.01180 | 8193 ft | 282 kts | 288° |
| 2026-04-14 16:07 | 49.93200 | 8.98271 | 8178 ft | 275 kts | 288° |
| 2026-04-14 16:07 | 49.93722 | 8.95531 | 8163 ft | 256 kts | 288° |
| 2026-04-14 16:08 | 49.94214 | 8.92951 | 8170 ft | 245 kts | 288° |
| 2026-04-14 16:08 | 49.94697 | 8.90419 | 8174 ft | 245 kts | 288° |
| 2026-04-14 16:08 | 49.95182 | 8.87880 | 8184 ft | 245 kts | 288° |
| 2026-04-14 16:08 | 49.95666 | 8.85333 | 8189 ft | 246 kts | 288° |
| 2026-04-14 16:09 | 49.96151 | 8.82776 | 8187 ft | 248 kts | 288° |
| 2026-04-14 16:09 | 49.96638 | 8.80203 | 8185 ft | 248 kts | 288° |
| 2026-04-14 16:09 | 49.97125 | 8.77629 | 8194 ft | 249 kts | 288° |
| 2026-04-14 16:09 | 49.97612 | 8.75046 | 8197 ft | 249 kts | 288° |
| 2026-04-14 16:10 | 49.98060 | 8.72441 | 8179 ft | 250 kts | 278° |
| 2026-04-14 16:10 | 49.97839 | 8.69794 | 8187 ft | 250 kts | 250° |
| 2026-04-14 16:10 | 49.97203 | 8.67283 | 8194 ft | 249 kts | 250° |
| 2026-04-14 16:10 | 49.96591 | 8.64768 | 8186 ft | 249 kts | 251° |
| 2026-04-14 16:11 | 49.95982 | 8.62245 | 8176 ft | 250 kts | 251° |
| 2026-04-14 16:11 | 49.95370 | 8.59716 | 8181 ft | 250 kts | 251° |
| 2026-04-14 16:11 | 49.94759 | 8.57182 | 8187 ft | 250 kts | 251° |
| 2026-04-14 16:11 | 49.94148 | 8.54648 | 8181 ft | 250 kts | 251° |
| 2026-04-14 16:12 | 49.93545 | 8.52164 | 7939 ft | 249 kts | 251° |
| 2026-04-14 16:12 | 49.92932 | 8.49627 | 7504 ft | 246 kts | 251° |
| 2026-04-14 16:12 | 49.92334 | 8.47149 | 6984 ft | 245 kts | 251° |
| 2026-04-14 16:12 | 49.91737 | 8.44668 | 6461 ft | 245 kts | 251° |
| 2026-04-14 16:13 | 49.91149 | 8.42236 | 5981 ft | 243 kts | 251° |
| 2026-04-14 16:13 | 49.90558 | 8.39787 | 5484 ft | 241 kts | 251° |
| 2026-04-14 16:13 | 49.89971 | 8.37362 | 5153 ft | 243 kts | 251° |
| 2026-04-14 16:13 | 49.89372 | 8.34875 | 5025 ft | 246 kts | 251° |
| 2026-04-14 16:14 | 49.88777 | 8.32433 | 4989 ft | 239 kts | 251° |
| 2026-04-14 16:14 | 49.88188 | 8.30006 | 5009 ft | 242 kts | 251° |
| 2026-04-14 16:14 | 49.87597 | 8.27566 | 5003 ft | 241 kts | 251° |
| 2026-04-14 16:14 | 49.87198 | 8.25921 | 5004 ft | 240 kts | 251° |
| 2026-04-14 16:15 | 49.86419 | 8.22729 | 4996 ft | 239 kts | 251° |
| 2026-04-14 16:15 | 49.86021 | 8.21103 | 4941 ft | 238 kts | 251° |
| 2026-04-14 16:15 | 49.85532 | 8.18706 | 4751 ft | 236 kts | 266° |
| 2026-04-14 16:15 | 49.85779 | 8.16236 | 4557 ft | 233 kts | 299° |
| 2026-04-14 16:16 | 49.86824 | 8.14404 | 4399 ft | 228 kts | 331° |
| 2026-04-14 16:16 | 49.88321 | 8.13746 | 4217 ft | 226 kts | 3° |
| 2026-04-14 16:16 | 49.89786 | 8.14464 | 4104 ft | 222 kts | 34° |
| 2026-04-14 16:16 | 49.90977 | 8.15991 | 4035 ft | 224 kts | 42° |
| 2026-04-14 16:17 | 49.92116 | 8.17659 | 3999 ft | 226 kts | 43° |
| 2026-04-14 16:17 | 49.93245 | 8.19346 | 4017 ft | 225 kts | 43° |
| 2026-04-14 16:17 | 49.94371 | 8.21026 | 3992 ft | 223 kts | 43° |
| 2026-04-14 16:17 | 49.95272 | 8.22867 | 3987 ft | 208 kts | 63° |
| 2026-04-14 16:18 | 49.95846 | 8.24846 | 4031 ft | 195 kts | 65° |
| 2026-04-14 16:18 | 49.96355 | 8.26769 | 3842 ft | 192 kts | 67° |
| 2026-04-14 16:18 | 49.96818 | 8.28651 | 3624 ft | 180 kts | 68° |
| 2026-04-14 16:18 | 49.97248 | 8.30436 | 3392 ft | 174 kts | 68° |
| 2026-04-14 16:19 | 49.97668 | 8.32186 | 3161 ft | 173 kts | 68° |
| 2026-04-14 16:19 | 49.98074 | 8.33892 | 2938 ft | 163 kts | 68° |
| 2026-04-14 16:19 | 49.98472 | 8.35535 | 2738 ft | 161 kts | 68° |
| 2026-04-14 16:19 | 49.98859 | 8.37157 | 2500 ft | 159 kts | 69° |
| 2026-04-14 16:20 | 49.99240 | 8.38747 | 2302 ft | 153 kts | 69° |
| 2026-04-14 16:20 | 49.99596 | 8.40234 | 2097 ft | 142 kts | 69° |
| 2026-04-14 16:20 | 49.99939 | 8.41660 | 1933 ft | 141 kts | 70° |
| 2026-04-14 16:20 | 50.00280 | 8.43097 | 1733 ft | 142 kts | 70° |
| 2026-04-14 16:21 | 50.00624 | 8.44530 | 1549 ft | 141 kts | 70° |
| 2026-04-14 16:21 | 50.00966 | 8.45956 | 1362 ft | 141 kts | 70° |
| 2026-04-14 16:21 | 50.01307 | 8.47382 | 1172 ft | 143 kts | 68° |
| 2026-04-14 16:21 | 50.01648 | 8.48863 | 964 ft | 145 kts | 68° |
| 2026-04-14 16:22 | 50.01994 | 8.50312 | 773 ft | 141 kts | 68° |
| 2026-04-14 16:22 | 50.02347 | 8.51749 | 583 ft | 142 kts | 68° |
| 2026-04-14 16:22 | 50.02695 | 8.53188 | 416 ft | 142 kts | 68° |
| 2026-04-14 16:22 | 50.03038 | 8.54608 | 349 ft | 131 kts | 68° |
| 2026-04-14 16:23 | 50.03313 | 8.55753 | 356 ft | 92 kts | 69° |
| 2026-04-14 16:23 | 50.03486 | 8.56479 | 358 ft | 60 kts | 70° |
| 2026-04-14 16:23 | 50.03603 | 8.56986 | 361 ft | 37 kts | 79° |
| 2026-04-14 16:23 | 50.03557 | 8.57253 | 357 ft | 14 kts | 131° |
| 2026-04-14 16:24 | 50.03482 | 8.57238 | 366 ft | 11 kts | 234° |
| 2026-04-14 16:24 | 50.03451 | 8.57133 | 362 ft | 11 kts | 248° |
| 2026-04-14 16:24 | 50.03423 | 8.57021 | 362 ft | 12 kts | 251° |
| 2026-04-14 16:24 | 50.03395 | 8.56897 | 363 ft | 11 kts | 249° |
| 2026-04-14 16:25 | 50.03389 | 8.56875 | 361 ft | 0 kts | 249° |
| 2026-04-14 16:25 | 50.03388 | 8.56872 | 361 ft | 0 kts | 249° |
| 2026-04-14 16:26 | 50.03386 | 8.56864 | 363 ft | 3 kts | 249° |
| 2026-04-14 16:26 | 50.03339 | 8.56806 | 361 ft | 15 kts | 186° |
| 2026-04-14 16:27 | 50.03258 | 8.56840 | 365 ft | 14 kts | 160° |
| 2026-04-14 16:27 | 50.03136 | 8.56910 | 365 ft | 20 kts | 160° |
| 2026-04-14 16:27 | 50.03008 | 8.56984 | 364 ft | 18 kts | 160° |
| 2026-04-14 16:27 | 50.02896 | 8.57049 | 364 ft | 17 kts | 159° |